Time;durP1;ratioP1;P1;durP2;ratioP2;P2;SDS_P1;SDS_P2;PMS_P1;PMS_P2;Temp;Humidity;BMP_temperature;BMP_pressure;BME280_temperature;BME280_humidity;BME280_pressure;Samples;Min_cycle;Max_cycle;Signal;HPM_P1;HPM_P2
2022/04/03 00:02:09;;;;;;;1.47;0.70;;;13.60;99.90;;;;;;6334278;22;20182;-92
2022/04/03 00:04:46;;;;;;;1.43;0.40;;;13.60;99.90;;;;;;6334630;22;20161;-90
2022/04/03 00:10:10;;;;;;;1.77;0.70;;;13.50;99.90;;;;;;6312460;22;20217;-93
2022/04/03 00:12:46;;;;;;;1.47;0.60;;;13.30;99.90;;;;;;6326506;22;20238;-91
2022/04/03 00:31:58;;;;;;;0.90;0.53;;;13.40;99.90;;;;;;6264460;23;20187;-91
2022/04/03 00:34:34;;;;;;;1.73;0.60;;;13.20;99.90;;;;;;6259140;23;20266;-91
2022/04/03 00:37:05;;;;;;;1.23;0.73;;;13.10;99.90;;;;;;6256592;23;20183;-91
2022/04/03 00:39:37;;;;;;;3.03;0.83;;;12.90;99.90;;;;;;6255320;23;20179;-91
2022/04/03 00:42:15;;;;;;;2.93;1.37;;;12.80;99.90;;;;;;6242440;23;20167;-91
2022/04/03 00:44:55;;;;;;;1.07;0.50;;;12.70;99.90;;;;;;6273088;22;20191;-91
2022/04/03 00:47:35;;;;;;;2.03;0.70;;;12.70;99.90;;;;;;6272992;22;20202;-92
2022/04/03 00:52:56;;;;;;;2.20;0.80;;;12.70;99.90;;;;;;6228751;22;20194;-91
2022/04/03 00:55:30;;;;;;;2.37;0.67;;;12.70;99.90;;;;;;6267528;22;20156;-90
2022/04/03 00:58:04;;;;;;;1.73;0.77;;;12.70;99.90;;;;;;6271731;22;20148;-92
2022/04/03 01:00:35;;;;;;;1.93;1.10;;;12.50;99.90;;;;;;6272395;22;20180;-89
2022/04/03 01:03:07;;;;;;;3.20;0.90;;;12.50;99.90;;;;;;6271467;23;20168;-91
2022/04/03 01:05:38;;;;;;;1.43;0.67;;;12.40;99.90;;;;;;6270715;22;20186;-90
2022/04/03 01:08:10;;;;;;;2.53;0.73;;;12.40;99.90;;;;;;6263031;22;20199;-91
2022/04/03 01:13:53;;;;;;;2.60;0.90;;;12.20;99.90;;;;;;6267990;22;20176;-93
2022/04/03 01:16:35;;;;;;;3.47;1.00;;;12.20;99.90;;;;;;6273210;22;20209;-92
2022/04/03 01:19:13;;;;;;;3.80;0.93;;;12.10;99.90;;;;;;6270280;23;20198;-91
2022/04/03 01:24:36;;;;;;;1.70;0.80;;;12.10;99.90;;;;;;6264798;23;20611;-92
2022/04/03 01:27:19;;;;;;;1.90;0.80;;;12.20;99.90;;;;;;6270360;22;20215;-93
2022/04/03 01:32:52;;;;;;;4.77;1.20;;;12.30;99.90;;;;;;6269225;23;20186;-93
2022/04/03 01:35:24;;;;;;;3.27;0.90;;;12.30;99.90;;;;;;6266977;23;20167;-93
2022/04/03 01:37:56;;;;;;;2.07;1.10;;;12.30;99.90;;;;;;6238123;23;20176;-90
2022/04/03 01:40:42;;;;;;;3.10;1.10;;;12.30;99.90;;;;;;6266900;23;20225;-93
2022/04/03 01:46:11;;;;;;;2.00;0.60;;;12.30;99.90;;;;;;6266329;23;20187;-91
2022/04/03 01:51:41;;;;;;;2.50;0.90;;;12.00;99.90;;;;;;6262532;22;20176;-91
2022/04/03 01:54:13;;;;;;;2.83;1.10;;;11.90;99.90;;;;;;6264407;22;20210;-91
2022/04/03 01:56:47;;;;;;;2.30;0.80;;;11.80;99.90;;;;;;6265974;22;20167;-92
2022/04/03 02:02:59;;;;;;;2.27;1.17;;;11.40;99.90;;;;;;6260244;22;20210;-91
2022/04/03 02:05:38;;;;;;;4.50;1.40;;;11.30;99.90;;;;;;6266360;22;20243;-92
2022/04/03 02:10:49;;;;;;;3.77;1.20;;;11.20;99.90;;;;;;6261630;22;20217;-91
2022/04/03 02:16:25;;;;;;;2.33;1.20;;;11.00;99.90;;;;;;6270063;22;20183;-92
2022/04/03 02:22:14;;;;;;;3.57;1.20;;;10.80;99.90;;;;;;6269950;23;20212;-92
2022/04/03 02:27:34;;;;;;;3.87;1.10;;;10.60;99.90;;;;;;6268439;22;20192;-91
2022/04/03 02:30:12;;;;;;;4.33;1.43;;;10.50;99.90;;;;;;6270107;22;20176;-92
2022/04/03 02:32:48;;;;;;;7.20;1.33;;;10.50;99.90;;;;;;6269869;22;20175;-91
2022/04/03 02:35:26;;;;;;;5.13;1.27;;;10.40;99.90;;;;;;6271983;23;20175;-91
2022/04/03 02:38:05;;;;;;;6.83;1.20;;;10.40;99.90;;;;;;6266686;22;20168;-92
2022/04/03 02:40:39;;;;;;;5.47;1.43;;;10.30;99.90;;;;;;6266958;23;20175;-91
2022/04/03 02:46:12;;;;;;;5.27;1.10;;;10.20;99.90;;;;;;6268488;23;20176;-91
2022/04/03 02:49:10;;;;;;;2.17;0.90;;;10.20;99.90;;;;;;6266541;23;20238;-90
2022/04/03 02:52:11;;;;;;;2.83;1.27;;;10.20;99.90;;;;;;6267398;23;20163;-92
2022/04/03 02:54:50;;;;;;;3.73;1.47;;;10.10;99.90;;;;;;6267062;23;20179;-92
2022/04/03 02:57:25;;;;;;;5.80;1.80;;;10.10;99.90;;;;;;6266947;23;20187;-90
2022/04/03 03:00:00;;;;;;;4.17;2.00;;;10.10;99.90;;;;;;6266959;22;20172;-91
2022/04/03 03:05:25;;;;;;;5.77;2.00;;;10.00;99.90;;;;;;6269931;23;20183;-91
2022/04/03 03:08:01;;;;;;;3.50;1.50;;;9.90;99.90;;;;;;6268307;22;20229;-91
2022/04/03 03:10:37;;;;;;;4.77;1.40;;;9.80;99.90;;;;;;6268471;22;20198;-89
2022/04/03 03:13:09;;;;;;;6.33;1.40;;;9.70;99.90;;;;;;6268879;22;20201;-92
2022/04/03 03:15:44;;;;;;;5.37;1.43;;;9.70;99.90;;;;;;6268654;23;20168;-91
2022/04/03 03:18:16;;;;;;;1.97;1.10;;;9.60;99.90;;;;;;6266859;22;20202;-91
2022/04/03 03:20:48;;;;;;;4.97;1.60;;;9.60;99.90;;;;;;6266924;22;20170;-91
2022/04/03 03:23:22;;;;;;;4.60;1.73;;;9.60;99.90;;;;;;6271910;22;20187;-90
2022/04/03 03:25:54;;;;;;;5.23;1.70;;;9.60;99.90;;;;;;6273379;22;20175;-89
2022/04/03 03:39:16;;;;;;;6.70;1.43;;;9.50;99.90;;;;;;6269132;22;20198;-92
2022/04/03 03:41:57;;;;;;;7.10;1.40;;;9.40;99.90;;;;;;6266855;22;20180;-91
2022/04/03 03:44:37;;;;;;;7.47;1.97;;;9.40;99.90;;;;;;6267813;22;20195;-92
2022/04/03 03:47:14;;;;;;;3.77;1.63;;;9.40;99.90;;;;;;6266106;23;20172;-92
2022/04/03 03:49:58;;;;;;;4.60;1.50;;;9.40;99.90;;;;;;6265540;23;20195;-91
2022/04/03 03:52:43;;;;;;;3.33;1.37;;;9.40;99.90;;;;;;6265263;23;20206;-92
2022/04/03 03:55:56;;;;;;;2.63;1.27;;;9.40;99.90;;;;;;6266508;23;20193;-91
2022/04/03 04:01:42;;;;;;;6.63;1.90;;;9.40;99.90;;;;;;6264919;23;20175;-91
2022/04/03 04:04:29;;;;;;;5.63;1.20;;;9.30;99.90;;;;;;6266482;23;20172;-90
2022/04/03 04:09:52;;;;;;;6.50;2.13;;;9.20;99.90;;;;;;6266002;23;20210;-90
2022/04/03 04:15:51;;;;;;;8.37;2.27;;;9.30;99.90;;;;;;6265805;22;20178;-92
2022/04/03 04:18:27;;;;;;;4.10;1.53;;;9.20;99.90;;;;;;6265684;22;20176;-90
2022/04/03 04:21:03;;;;;;;4.83;1.67;;;9.20;99.90;;;;;;6264918;23;20226;-91
2022/04/03 04:29:27;;;;;;;4.83;1.67;;;9.20;99.90;;;;;;6267631;23;20239;-90
2022/04/03 04:34:52;;;;;;;3.50;1.60;;;9.10;99.90;;;;;;6263212;23;20180;-91
2022/04/03 04:37:32;;;;;;;5.73;1.70;;;9.00;99.90;;;;;;6262178;23;20183;-92
2022/04/03 04:48:51;;;;;;;6.00;2.63;;;8.90;99.90;;;;;;6253879;22;20218;-90
2022/04/03 04:51:27;;;;;;;6.70;2.00;;;9.00;99.90;;;;;;6266823;23;20221;-92
2022/04/03 04:54:01;;;;;;;5.30;1.77;;;8.90;99.90;;;;;;6271759;22;20170;-91
2022/04/03 04:56:33;;;;;;;9.07;1.87;;;8.90;99.90;;;;;;6269236;22;20191;-92
2022/04/03 04:59:05;;;;;;;4.73;1.77;;;8.90;99.90;;;;;;6260983;22;20184;-92
2022/04/03 05:01:36;;;;;;;6.40;2.00;;;8.90;99.90;;;;;;6256736;22;20156;-93
2022/04/03 05:04:09;;;;;;;3.90;1.70;;;8.90;99.90;;;;;;6256881;22;20179;-91
2022/04/03 05:06:42;;;;;;;5.70;1.90;;;8.90;99.90;;;;;;6253252;22;20175;-91
2022/04/03 05:09:17;;;;;;;3.97;1.77;;;8.90;99.90;;;;;;6251441;22;20274;-91
2022/04/03 05:11:50;;;;;;;7.87;1.87;;;8.90;99.90;;;;;;6251449;22;20199;-91
2022/04/03 05:14:22;;;;;;;4.87;1.80;;;8.90;99.90;;;;;;6253201;22;20194;-90
2022/04/03 05:16:57;;;;;;;7.17;2.10;;;8.90;99.90;;;;;;6252498;23;20176;-92
2022/04/03 05:19:36;;;;;;;6.00;1.77;;;8.90;99.90;;;;;;6257514;22;20575;-90
2022/04/03 05:25:08;;;;;;;6.03;1.70;;;8.80;99.90;;;;;;6264514;22;20301;-91
2022/04/03 05:30:27;;;;;;;7.10;1.93;;;8.80;99.90;;;;;;6272010;22;20163;-90
2022/04/03 05:33:00;;;;;;;7.50;1.97;;;8.80;99.90;;;;;;6270884;22;20179;-93
2022/04/03 05:35:33;;;;;;;4.23;1.47;;;8.80;99.90;;;;;;6254183;23;20175;-91
2022/04/03 05:38:04;;;;;;;7.83;1.70;;;8.80;99.90;;;;;;6253790;22;20194;-91
2022/04/03 05:40:40;;;;;;;8.27;1.97;;;8.80;99.90;;;;;;6270761;22;20174;-91
2022/04/03 05:43:12;;;;;;;6.13;2.00;;;8.80;99.90;;;;;;6273114;22;20228;-91
2022/04/03 05:45:44;;;;;;;4.73;1.63;;;8.80;99.90;;;;;;6270681;22;20164;-92
2022/04/03 05:48:20;;;;;;;6.93;2.07;;;8.80;99.90;;;;;;6267053;23;20183;-92
2022/04/03 05:50:55;;;;;;;7.27;1.87;;;8.70;99.90;;;;;;6268453;22;20185;-91
2022/04/03 05:53:30;;;;;;;6.50;1.93;;;8.70;99.90;;;;;;6264718;22;20175;-92
2022/04/03 05:56:11;;;;;;;5.20;2.10;;;8.60;99.90;;;;;;6265705;22;20176;-92
2022/04/03 05:58:43;;;;;;;7.57;1.73;;;8.60;99.90;;;;;;6259109;22;20175;-91
2022/04/03 06:04:08;;;;;;;4.73;2.30;;;8.50;99.90;;;;;;6255279;23;20171;-92
2022/04/03 06:07:13;;;;;;;6.77;2.57;;;8.40;99.90;;;;;;6252501;22;20190;-92
2022/04/03 06:09:56;;;;;;;6.83;2.40;;;8.40;99.90;;;;;;6264402;22;20199;-91
2022/04/03 06:12:34;;;;;;;6.53;2.60;;;8.40;99.90;;;;;;6266682;22;20198;-92
2022/04/03 06:15:11;;;;;;;6.03;2.57;;;8.40;99.90;;;;;;6265138;22;20250;-90
2022/04/03 06:17:43;;;;;;;6.73;2.40;;;8.40;99.90;;;;;;6248765;23;20210;-90
2022/04/03 06:20:21;;;;;;;8.00;2.20;;;8.40;99.90;;;;;;6252120;23;20178;-92
2022/04/03 06:22:52;;;;;;;7.57;2.03;;;8.40;99.90;;;;;;6255690;22;20195;-91
2022/04/03 06:25:26;;;;;;;4.47;1.40;;;8.40;99.90;;;;;;6253324;22;20176;-90
2022/04/03 06:27:57;;;;;;;11.00;1.80;;;8.50;99.90;;;;;;6252026;22;20179;-91
2022/04/03 06:30:34;;;;;;;3.00;1.83;;;8.50;99.90;;;;;;6253529;22;20203;-92
2022/04/03 06:33:05;;;;;;;7.03;2.30;;;8.50;99.90;;;;;;6253090;22;20180;-91
2022/04/03 06:35:36;;;;;;;4.17;1.47;;;8.50;99.90;;;;;;6251953;22;20233;-91
2022/04/03 06:38:13;;;;;;;8.00;2.20;;;8.50;99.90;;;;;;6249936;23;20171;-92
2022/04/03 06:40:51;;;;;;;8.20;1.77;;;8.50;99.90;;;;;;6257452;22;20179;-92
2022/04/03 06:43:24;;;;;;;4.73;1.70;;;8.50;99.90;;;;;;6252188;22;20163;-91
2022/04/03 06:45:57;;;;;;;4.23;1.87;;;8.50;99.90;;;;;;6250132;23;20547;-91
2022/04/03 06:48:30;;;;;;;7.10;2.00;;;8.50;99.90;;;;;;6249740;22;20710;-90
2022/04/03 06:51:03;;;;;;;9.90;2.63;;;8.50;99.90;;;;;;6254532;22;20266;-92
2022/04/03 06:53:35;;;;;;;6.83;1.80;;;8.50;99.90;;;;;;6258582;23;20611;-92
2022/04/03 06:56:09;;;;;;;5.57;1.70;;;8.50;99.90;;;;;;6253887;23;20238;-91
2022/04/03 06:58:41;;;;;;;6.37;2.03;;;8.40;99.90;;;;;;6260954;22;20163;-91
2022/04/03 07:01:13;;;;;;;8.30;2.20;;;8.40;99.90;;;;;;6253629;23;20191;-92
2022/04/03 07:03:46;;;;;;;6.67;1.63;;;8.40;99.90;;;;;;6266900;22;20625;-91
2022/04/03 07:06:18;;;;;;;8.20;2.13;;;8.40;99.90;;;;;;6266800;22;20160;-90
2022/04/03 07:08:49;;;;;;;5.13;2.00;;;8.40;99.90;;;;;;6251162;22;20175;-91
2022/04/03 07:11:22;;;;;;;6.63;2.40;;;8.40;99.90;;;;;;6253252;22;20167;-92
2022/04/03 07:13:54;;;;;;;6.40;2.00;;;8.30;99.90;;;;;;6252789;22;20186;-91
2022/04/03 07:16:25;;;;;;;5.67;2.20;;;8.30;99.90;;;;;;6252153;23;20198;-91
2022/04/03 07:18:57;;;;;;;7.70;1.97;;;8.30;99.90;;;;;;6249529;23;20238;-91
2022/04/03 07:21:29;;;;;;;8.93;1.93;;;8.30;99.90;;;;;;6226480;23;20630;-91
2022/04/03 07:24:00;;;;;;;4.23;1.67;;;8.20;99.90;;;;;;6251842;23;20164;-92
2022/04/03 07:26:36;;;;;;;12.03;2.40;;;8.20;99.90;;;;;;6250356;22;20222;-90
2022/04/03 07:29:08;;;;;;;5.67;1.97;;;8.20;99.90;;;;;;6248992;23;20171;-91
2022/04/03 07:31:39;;;;;;;5.57;1.90;;;8.20;99.90;;;;;;6252237;22;20171;-91
2022/04/03 07:34:11;;;;;;;6.83;2.60;;;8.20;99.90;;;;;;6252085;22;20615;-91
2022/04/03 07:36:43;;;;;;;8.17;2.40;;;8.10;99.90;;;;;;6251455;22;20503;-91
2022/04/03 07:39:18;;;;;;;8.63;2.20;;;8.10;99.90;;;;;;6249434;23;20171;-90
2022/04/03 07:41:52;;;;;;;6.53;2.17;;;8.10;99.90;;;;;;6250295;23;20255;-90
2022/04/03 07:44:24;;;;;;;7.17;2.67;;;8.10;99.90;;;;;;6252612;22;20267;-92
2022/04/03 07:46:55;;;;;;;6.70;2.23;;;8.10;99.90;;;;;;6251657;22;20192;-90
2022/04/03 07:49:27;;;;;;;8.60;2.60;;;8.10;99.90;;;;;;6250470;22;20176;-90
2022/04/03 07:52:03;;;;;;;4.30;1.90;;;8.10;99.90;;;;;;6264311;22;20179;-91
2022/04/03 07:54:38;;;;;;;6.00;2.33;;;8.00;99.90;;;;;;6272685;22;20186;-90
2022/04/03 07:57:13;;;;;;;6.30;2.30;;;8.00;99.90;;;;;;6271584;22;20168;-90
2022/04/03 07:59:44;;;;;;;5.47;2.20;;;7.90;99.90;;;;;;6260775;23;20210;-91
2022/04/03 08:02:16;;;;;;;5.50;2.27;;;7.90;99.90;;;;;;6255595;22;20179;-92
2022/04/03 08:04:48;;;;;;;5.77;2.20;;;7.90;99.90;;;;;;6252531;23;20570;-91
2022/04/03 08:07:20;;;;;;;7.20;2.20;;;7.90;99.90;;;;;;6255261;22;20202;-92
2022/04/03 08:09:52;;;;;;;4.57;1.87;;;7.90;99.90;;;;;;6253911;22;20203;-91
2022/04/03 08:12:27;;;;;;;5.73;2.00;;;7.90;99.90;;;;;;6257943;22;20195;-91
2022/04/03 08:15:01;;;;;;;6.10;2.60;;;7.90;99.90;;;;;;6264712;22;20164;-91
2022/04/03 08:20:21;;;;;;;8.17;2.37;;;7.90;99.90;;;;;;6262521;22;20258;-92
2022/04/03 08:22:55;;;;;;;7.03;2.13;;;7.90;99.90;;;;;;6250374;23;20266;-91
2022/04/03 08:25:26;;;;;;;5.13;2.40;;;7.90;99.90;;;;;;6249870;23;20246;-91
2022/04/03 08:27:59;;;;;;;7.27;2.50;;;7.90;99.90;;;;;;6250594;22;20191;-91
2022/04/03 08:30:33;;;;;;;5.83;2.13;;;7.90;99.90;;;;;;6255693;22;20239;-91
2022/04/03 08:33:06;;;;;;;5.20;1.63;;;7.90;99.90;;;;;;6251269;22;20182;-92
2022/04/03 08:35:40;;;;;;;5.27;2.13;;;7.90;99.90;;;;;;6253718;22;20175;-91
2022/04/03 08:38:12;;;;;;;3.67;2.27;;;7.90;99.90;;;;;;6248860;23;20179;-91
2022/04/03 08:40:46;;;;;;;6.80;2.40;;;7.80;99.90;;;;;;6255180;22;20225;-90
2022/04/03 08:43:23;;;;;;;6.50;2.50;;;7.90;99.90;;;;;;6255811;23;20175;-90
2022/04/03 08:45:55;;;;;;;7.03;3.07;;;7.80;99.90;;;;;;6251379;23;20175;-90
2022/04/03 08:48:29;;;;;;;7.83;3.13;;;7.80;99.90;;;;;;6249685;23;20204;-90
2022/04/03 08:53:57;;;;;;;9.43;2.67;;;7.90;99.90;;;;;;6240149;23;20186;-91
2022/04/03 08:56:29;;;;;;;7.97;2.70;;;7.80;99.90;;;;;;6241595;23;20173;-92
2022/04/03 08:59:02;;;;;;;5.47;2.60;;;7.80;99.90;;;;;;6236206;23;20176;-91
2022/04/03 09:01:34;;;;;;;7.10;2.80;;;7.70;99.90;;;;;;6238890;23;20157;-91
2022/04/03 09:04:12;;;;;;;9.20;2.80;;;7.70;99.90;;;;;;6235118;23;20160;-91
2022/04/03 09:06:57;;;;;;;5.40;2.57;;;7.80;99.90;;;;;;6221753;23;20176;-93
2022/04/03 09:09:30;;;;;;;7.17;2.77;;;7.80;99.90;;;;;;6230836;23;20172;-92
2022/04/03 09:12:12;;;;;;;6.27;2.93;;;7.70;99.90;;;;;;6222781;23;20192;-92
2022/04/03 09:14:52;;;;;;;5.63;2.80;;;7.70;99.90;;;;;;6223742;23;20164;-91
2022/04/03 09:17:42;;;;;;;7.60;2.90;;;7.80;99.90;;;;;;6220871;23;20172;-90
2022/04/03 09:20:15;;;;;;;4.37;2.57;;;7.80;99.90;;;;;;6221158;23;20180;-91
2022/04/03 09:22:51;;;;;;;8.10;2.80;;;7.70;99.90;;;;;;6226026;23;20192;-91
2022/04/03 09:25:27;;;;;;;8.57;2.97;;;7.80;99.90;;;;;;6223469;23;20168;-91
2022/04/03 09:28:00;;;;;;;8.63;2.70;;;7.80;99.90;;;;;;6219721;23;20176;-91
2022/04/03 09:30:36;;;;;;;7.30;2.40;;;7.80;99.90;;;;;;6223068;23;20511;-91
2022/04/03 09:33:10;;;;;;;5.20;2.10;;;7.80;99.90;;;;;;6221680;23;20168;-92
2022/04/03 09:35:58;;;;;;;6.30;1.97;;;7.80;99.90;;;;;;6220320;23;20207;-91
2022/04/03 09:38:32;;;;;;;4.47;2.07;;;7.80;99.90;;;;;;6221602;23;20192;-90
2022/04/03 09:41:05;;;;;;;5.40;1.90;;;7.80;99.90;;;;;;6231743;23;20249;-91
2022/04/03 09:43:38;;;;;;;6.57;2.17;;;7.80;99.90;;;;;;6223920;23;20178;-92
2022/04/03 09:46:14;;;;;;;4.07;1.70;;;7.80;99.90;;;;;;6226760;23;20642;-91
2022/04/03 09:48:46;;;;;;;6.10;2.13;;;7.80;99.90;;;;;;6227596;23;20210;-89
2022/04/03 09:51:19;;;;;;;5.17;2.03;;;7.80;99.90;;;;;;6226297;23;20192;-90
2022/04/03 09:53:56;;;;;;;4.43;1.90;;;7.70;99.90;;;;;;6225290;23;20223;-90
2022/04/03 09:56:33;;;;;;;6.80;1.90;;;7.60;99.90;;;;;;6220194;23;20184;-90
2022/04/03 09:59:08;;;;;;;8.27;1.97;;;7.70;99.90;;;;;;6233243;23;20246;-88
2022/04/03 10:01:43;;;;;;;6.33;1.63;;;7.70;99.90;;;;;;6227953;23;20180;-89
2022/04/03 10:04:16;;;;;;;5.43;1.90;;;7.70;99.90;;;;;;6226899;23;20202;-91
2022/04/03 10:06:47;;;;;;;7.03;1.70;;;7.70;99.90;;;;;;6234038;23;20180;-91
2022/04/03 10:09:21;;;;;;;3.40;2.00;;;7.70;99.90;;;;;;6240509;23;20156;-91
2022/04/03 10:11:52;;;;;;;5.67;1.80;;;7.70;99.90;;;;;;6239683;23;20192;-91
2022/04/03 10:14:26;;;;;;;6.23;2.03;;;7.80;99.90;;;;;;6230143;23;20682;-91
2022/04/03 10:17:03;;;;;;;4.97;1.80;;;7.80;99.90;;;;;;6225629;23;20182;-91
2022/04/03 10:19:34;;;;;;;6.03;1.97;;;7.80;99.90;;;;;;6223997;23;20176;-91
2022/04/03 10:22:12;;;;;;;5.27;2.30;;;7.80;99.90;;;;;;6225693;23;20177;-91
2022/04/03 10:24:50;;;;;;;4.23;1.60;;;7.80;99.90;;;;;;6224210;23;20195;-91
2022/04/03 10:27:26;;;;;;;5.90;1.80;;;7.80;99.90;;;;;;6222053;23;20187;-90
2022/04/03 10:29:59;;;;;;;3.07;2.00;;;7.90;99.90;;;;;;6221544;23;20176;-90
2022/04/03 10:32:35;;;;;;;8.13;2.40;;;7.80;99.90;;;;;;6222882;23;20200;-91
2022/04/03 10:35:08;;;;;;;8.10;1.97;;;7.80;99.90;;;;;;6222751;23;20626;-89
2022/04/03 10:37:41;;;;;;;11.17;2.30;;;7.80;99.90;;;;;;6222468;23;20172;-90
2022/04/03 10:40:16;;;;;;;6.83;2.20;;;7.80;99.90;;;;;;6223268;23;20177;-90
2022/04/03 10:42:52;;;;;;;3.97;1.97;;;7.80;99.90;;;;;;6224918;23;20234;-91
2022/04/03 10:45:29;;;;;;;5.17;2.00;;;7.70;99.90;;;;;;6224107;23;20616;-92
2022/04/03 10:48:39;;;;;;;4.83;2.00;;;7.60;99.90;;;;;;6225589;23;20180;-92
2022/04/03 10:51:23;;;;;;;5.23;2.43;;;7.70;99.90;;;;;;6234034;23;20196;-90
2022/04/03 10:54:03;;;;;;;3.90;1.70;;;7.70;99.90;;;;;;6239960;23;20213;-90
2022/04/03 10:56:34;;;;;;;8.03;2.07;;;7.60;99.90;;;;;;6241314;23;20187;-89
2022/04/03 10:59:12;;;;;;;5.87;2.30;;;7.60;99.90;;;;;;6239440;23;20164;-90
2022/04/03 11:01:46;;;;;;;4.60;1.87;;;7.60;99.90;;;;;;6227836;23;20176;-91
2022/04/03 11:04:17;;;;;;;5.37;1.60;;;7.60;99.90;;;;;;6224790;23;20179;-90
2022/04/03 11:06:51;;;;;;;6.17;2.13;;;7.60;99.90;;;;;;6221832;23;20181;-91
2022/04/03 11:09:25;;;;;;;5.97;2.30;;;7.60;99.90;;;;;;6220508;23;20233;-90
2022/04/03 11:12:01;;;;;;;6.03;2.10;;;7.60;99.90;;;;;;6221869;23;20191;-90
2022/04/03 11:15:15;;;;;;;4.93;1.90;;;7.60;99.90;;;;;;6221375;23;20180;-91
2022/04/03 11:17:54;;;;;;;3.37;1.77;;;7.50;99.90;;;;;;6161244;23;20189;-92
2022/04/03 11:20:33;;;;;;;5.93;2.20;;;7.50;99.90;;;;;;6159415;23;20491;-92
2022/04/03 11:23:07;;;;;;;3.83;1.90;;;7.50;99.90;;;;;;6201762;23;20180;-90
2022/04/03 11:25:39;;;;;;;4.77;1.80;;;7.60;99.90;;;;;;6220983;23;20215;-92
2022/04/03 11:28:11;;;;;;;3.17;1.70;;;7.50;99.90;;;;;;6221010;23;20183;-91
2022/04/03 11:30:43;;;;;;;6.03;2.33;;;7.60;99.90;;;;;;6195384;23;20173;-91
2022/04/03 11:33:17;;;;;;;3.97;1.87;;;7.70;99.90;;;;;;6224169;23;20218;-91
2022/04/03 11:35:48;;;;;;;4.33;2.10;;;7.70;99.90;;;;;;6231819;23;20184;-90
2022/04/03 11:38:22;;;;;;;4.70;2.10;;;7.60;99.90;;;;;;6241334;23;20172;-91
2022/04/03 11:40:56;;;;;;;2.73;1.93;;;7.50;99.90;;;;;;6239655;23;20186;-91
2022/04/03 11:43:27;;;;;;;6.23;2.13;;;7.50;99.90;;;;;;6223577;23;20176;-91
2022/04/03 11:46:00;;;;;;;3.83;1.80;;;7.60;99.90;;;;;;6224677;23;20173;-91
2022/04/03 11:48:37;;;;;;;6.73;2.13;;;7.50;99.90;;;;;;6223589;23;20178;-90
2022/04/03 11:51:12;;;;;;;4.47;2.17;;;7.50;99.90;;;;;;6222313;23;20238;-91
2022/04/03 11:53:50;;;;;;;5.13;2.40;;;7.40;99.90;;;;;;6221149;23;20176;-90
2022/04/03 11:56:22;;;;;;;3.17;1.70;;;7.50;99.90;;;;;;6223673;23;20517;-91
2022/04/03 11:58:57;;;;;;;8.13;2.63;;;7.50;99.90;;;;;;6223328;23;20527;-90
2022/04/03 12:01:31;;;;;;;3.60;1.80;;;7.50;99.90;;;;;;6221487;23;20549;-91
2022/04/03 12:04:05;;;;;;;5.07;1.80;;;7.50;99.90;;;;;;6223104;23;20192;-90
2022/04/03 12:06:37;;;;;;;2.30;1.60;;;7.50;99.90;;;;;;6220770;23;20688;-91
2022/04/03 12:09:12;;;;;;;5.67;1.90;;;7.40;99.90;;;;;;6221241;23;20164;-91
2022/04/03 12:11:48;;;;;;;3.87;1.90;;;7.30;99.90;;;;;;6221591;23;20627;-91
2022/04/03 12:14:25;;;;;;;2.87;1.77;;;7.40;99.90;;;;;;6220620;23;20207;-89
2022/04/03 12:17:00;;;;;;;2.77;1.70;;;7.30;99.90;;;;;;6220976;23;20344;-90
2022/04/03 12:19:35;;;;;;;4.13;1.80;;;7.20;99.90;;;;;;6221487;23;20179;-92
2022/04/03 12:22:10;;;;;;;4.37;1.80;;;7.20;99.90;;;;;;6231134;23;20175;-91
2022/04/03 12:24:44;;;;;;;2.70;1.60;;;7.30;99.90;;;;;;6236962;23;20167;-91
2022/04/03 12:27:22;;;;;;;4.97;2.13;;;7.30;99.90;;;;;;6215660;23;20184;-91
2022/04/03 12:29:55;;;;;;;3.30;1.70;;;7.30;99.90;;;;;;6238240;23;20164;-91
2022/04/03 12:32:35;;;;;;;4.03;1.70;;;7.20;99.90;;;;;;6241804;23;20203;-91
2022/04/03 12:35:09;;;;;;;3.63;1.70;;;7.20;99.90;;;;;;6241546;23;20212;-91
2022/04/03 12:37:41;;;;;;;4.50;1.63;;;7.20;99.90;;;;;;6240223;23;20181;-91
2022/04/03 12:40:16;;;;;;;3.20;1.70;;;7.30;99.90;;;;;;6238385;23;20232;-91
2022/04/03 12:42:48;;;;;;;6.73;2.00;;;7.30;99.90;;;;;;6239921;23;20179;-91
2022/04/03 12:45:21;;;;;;;6.07;2.03;;;7.30;99.90;;;;;;6238808;23;20172;-90
2022/04/03 12:48:01;;;;;;;6.93;2.63;;;7.40;99.90;;;;;;6236924;23;20168;-91
2022/04/03 12:50:40;;;;;;;6.77;1.97;;;7.30;99.90;;;;;;6233059;23;20180;-92
2022/04/03 12:53:15;;;;;;;11.23;2.03;;;7.20;99.90;;;;;;6222344;23;20231;-90
2022/04/03 12:56:05;;;;;;;7.13;2.03;;;7.30;99.90;;;;;;6195472;23;20190;-89
2022/04/03 12:58:41;;;;;;;6.07;1.90;;;7.20;99.90;;;;;;6217965;23;20180;-90
2022/04/03 13:01:18;;;;;;;6.27;1.87;;;7.10;99.90;;;;;;6221068;23;20219;-90
2022/04/03 13:03:54;;;;;;;6.13;2.17;;;7.10;99.90;;;;;;6195583;23;20215;-91
2022/04/03 13:06:28;;;;;;;6.17;1.80;;;7.10;99.90;;;;;;6221315;23;20211;-91
2022/04/03 13:09:07;;;;;;;5.63;1.63;;;7.10;99.90;;;;;;6220641;23;20194;-91
2022/04/03 13:11:43;;;;;;;5.70;2.00;;;7.10;99.90;;;;;;6223205;23;20175;-91
2022/04/03 13:14:22;;;;;;;4.43;1.83;;;7.00;99.90;;;;;;6241453;23;20192;-91
2022/04/03 13:16:54;;;;;;;4.00;1.93;;;7.00;99.90;;;;;;6241382;23;20179;-90
2022/04/03 13:19:26;;;;;;;3.33;1.60;;;6.90;99.90;;;;;;6241568;23;20204;-91
2022/04/03 13:21:58;;;;;;;6.47;2.00;;;7.00;99.90;;;;;;6241324;23;20207;-91
2022/04/03 13:24:32;;;;;;;4.90;1.63;;;7.00;99.90;;;;;;6241324;23;20198;-91
2022/04/03 13:27:08;;;;;;;7.53;1.90;;;7.00;99.90;;;;;;6242168;23;20180;-90
2022/04/03 13:29:40;;;;;;;8.00;1.80;;;6.90;99.90;;;;;;6241884;23;20207;-92
2022/04/03 13:32:13;;;;;;;10.23;2.00;;;7.00;99.90;;;;;;6216693;22;20204;-92
2022/04/03 13:34:45;;;;;;;9.83;2.40;;;7.00;99.90;;;;;;6238661;23;20180;-91
2022/04/03 13:37:17;;;;;;;10.83;2.70;;;7.00;99.90;;;;;;6237012;23;20167;-89
2022/04/03 13:39:48;;;;;;;8.37;2.30;;;7.00;99.90;;;;;;6237820;23;20180;-89
2022/04/03 13:42:22;;;;;;;11.03;2.50;;;7.00;99.90;;;;;;6239279;23;20152;-90
2022/04/03 13:44:53;;;;;;;7.53;2.17;;;7.00;99.90;;;;;;6238568;23;20176;-91
2022/04/03 13:47:26;;;;;;;5.67;2.10;;;7.00;99.90;;;;;;6237865;23;20197;-90
2022/04/03 13:50:00;;;;;;;7.50;1.90;;;7.00;99.90;;;;;;6237671;23;20185;-90
2022/04/03 13:52:32;;;;;;;4.70;2.07;;;7.00;99.90;;;;;;6237491;23;20187;-90
2022/04/03 13:55:03;;;;;;;7.30;1.93;;;6.90;99.90;;;;;;6238580;23;20172;-90
2022/04/03 13:57:36;;;;;;;9.20;2.57;;;6.90;99.90;;;;;;6210376;23;20172;-90
2022/04/03 14:00:09;;;;;;;8.67;2.27;;;6.90;99.90;;;;;;6238324;23;20564;-91
2022/04/03 14:02:41;;;;;;;5.13;2.00;;;6.90;99.90;;;;;;6236411;23;20199;-91
2022/04/03 14:05:13;;;;;;;7.63;2.30;;;6.90;99.90;;;;;;6240825;23;20171;-90
2022/04/03 14:07:46;;;;;;;6.90;2.43;;;7.00;99.90;;;;;;6214870;23;20205;-92
2022/04/03 14:10:20;;;;;;;6.30;2.87;;;6.90;99.90;;;;;;6239903;23;20242;-89
2022/04/03 14:12:55;;;;;;;12.00;2.80;;;6.90;99.90;;;;;;6213340;23;20196;-92
2022/04/03 14:15:39;;;;;;;8.20;2.20;;;6.90;99.90;;;;;;6240931;23;20195;-90
2022/04/03 14:18:12;;;;;;;8.90;2.50;;;6.90;99.90;;;;;;6227841;23;20492;-90
2022/04/03 14:20:43;;;;;;;7.67;2.63;;;6.90;99.90;;;;;;6239877;23;20157;-92
2022/04/03 14:23:15;;;;;;;9.40;3.03;;;6.90;99.90;;;;;;6241560;23;20177;-91
2022/04/03 14:25:47;;;;;;;7.17;2.50;;;6.90;99.90;;;;;;6238750;23;20278;-90
2022/04/03 14:28:21;;;;;;;4.27;2.30;;;7.00;99.90;;;;;;6227531;23;20172;-90
2022/04/03 14:30:52;;;;;;;7.20;2.13;;;7.00;99.90;;;;;;6224003;23;20188;-90
2022/04/03 14:33:24;;;;;;;7.57;2.43;;;7.10;99.90;;;;;;6222786;23;20200;-90
2022/04/03 14:35:56;;;;;;;7.63;2.20;;;7.20;99.90;;;;;;6223729;23;20227;-90
2022/04/03 14:38:53;;;;;;;6.47;2.37;;;7.10;99.90;;;;;;6224029;23;20207;-91
2022/04/03 14:41:24;;;;;;;8.23;2.03;;;7.10;99.90;;;;;;6224064;23;20177;-90
2022/04/03 14:43:57;;;;;;;8.77;2.80;;;7.00;99.90;;;;;;6231023;23;20183;-90
2022/04/03 14:46:29;;;;;;;9.20;2.17;;;7.00;99.90;;;;;;6232666;23;20180;-90
2022/04/03 14:49:02;;;;;;;4.23;2.40;;;7.00;99.90;;;;;;6205637;23;20190;-91
2022/04/03 14:51:39;;;;;;;4.73;2.00;;;7.10;99.90;;;;;;6224791;23;20242;-90
2022/04/03 14:54:10;;;;;;;7.30;2.53;;;7.10;99.90;;;;;;6200232;23;20199;-91
2022/04/03 14:56:50;;;;;;;8.30;3.03;;;7.20;99.90;;;;;;6226893;23;20702;-90
2022/04/03 14:59:28;;;;;;;5.27;2.20;;;7.30;99.90;;;;;;6225069;23;20179;-90
2022/04/03 15:02:02;;;;;;;8.73;2.60;;;7.30;99.90;;;;;;6229521;23;20175;-90
2022/04/03 15:04:33;;;;;;;10.83;2.40;;;7.30;99.90;;;;;;6228590;23;20575;-90
2022/04/03 15:07:10;;;;;;;6.43;2.60;;;7.30;99.90;;;;;;6198954;23;20171;-91
2022/04/03 15:09:42;;;;;;;11.70;2.67;;;7.40;99.90;;;;;;6223044;23;20164;-91
2022/04/03 15:12:13;;;;;;;10.23;2.83;;;7.40;99.90;;;;;;6223131;23;20183;-91
2022/04/03 15:14:47;;;;;;;11.60;2.87;;;7.50;99.90;;;;;;6231009;23;20204;-92
2022/04/03 15:17:20;;;;;;;7.03;2.33;;;7.60;99.90;;;;;;6227488;23;20178;-91
2022/04/03 15:19:53;;;;;;;9.60;2.20;;;7.50;99.90;;;;;;6229499;23;20179;-90
2022/04/03 15:22:24;;;;;;;6.63;2.33;;;7.50;99.90;;;;;;6222420;23;20183;-92
2022/04/03 15:24:56;;;;;;;5.70;2.17;;;7.50;99.90;;;;;;6196935;23;20176;-91
2022/04/03 15:27:27;;;;;;;5.23;2.03;;;7.40;99.90;;;;;;6222517;23;20822;-92